Airfield :
LOGIN :

Register | Disclaimer

   EN    FR    IT 

 










Legend :    VFR   Marginal VFR   IFR   Intensive IFR   Very Intensive IFR
Visi :
Ceiling :
>= 8 km
>= 3000ft
5 to 8 km
1000 to 3000 ft
1500m to 5 km
500 to 1000 ft
800 to 1500m
200 to 500 ft
< 800m
< 200 ft
Symbols :   Thunderstorms  Fog  Heavy snow  Heavy precipitations  Wind > 20 kt
SIGMETs :     Misc.  Thunderstorms  Icing  Turbulence  Mountain Waves  Volcanic Ashes






- Airport Elevation : 1234 ft
- IATA code : LUX


ELLX - Luxembourg Findel

CURRENT METAR :
  • 192250Z 04006KT 350V060 0300 R24/0200V0325N FZFG BKN001 M00/M00 Q1018 TEMPO 0200 BKN002

EXPIRED METARs :
  • 192220Z 06006KT 0500 R24/0275N FZFG SCT001 M00/M01 Q1018 TEMPO 0200 BKN002
  • 192150Z VRB01KT 3000 R24/P2000N BR NSC M01/M01 Q1018 TEMPO 1200
  • 192120Z VRB01KT 2000 BR NSC M00/M01 Q1018 BECMG 02005KT
  • 192050Z VRB02KT 4000 BR NSC M00/M00 Q1018 BECMG 02005KT
  • 192020Z VRB04KT 6000 NSC M01/M01 Q1018 BECMG 02005KT
  • 191950Z 30003KT 230V360 8000 NSC M00/M00 Q1018 BECMG 02005KT

TAF AMD TAF ELLX
Valid from the 19 at 21:00 until the 21 at 00:00 UTC


192100Z 1921/2024 VRB02KT 5000 BR FEW015 BKN035
TEMPO 1921/2005 1200 BR
PROB40
TEMPO 1923/2005 0200 FZFG BKN004
BECMG 2005/2006 2000 BR BKN008
TEMPO 2006/2010 0100 FG BKN001
BECMG 2010/2013 07010KT 7000 BKN012
ATIS : +352 4798 27300
Met : +352 4798 27010 / 27050



MET'MAP, your aeronautical weather chart ! - Copyright ORBIFLY December 2007 - Disclaimer

ORBIFLY MET'MAP TEAM :

Programming & Development : Alexandra Zaïnal
Concept & Development : Baudouin d'Aumeries
Co-Development & Prog : Marc-Olivier Méhu
Technical & hardware support : Manuel Goepfert

Contact : metmap@orbifly.com




SOURCES & CREDITS :

   NOAA